sensor_id;sensor_type;location;lat;lon;timestamp;P1;durP1;ratioP1;P2;durP2;ratioP2
21444;SDS011;10883;51.946;20.140;2023-04-06T00:01:38;119.80;;;42.63;;
21444;SDS011;10883;51.946;20.140;2023-04-06T00:04:04;116.80;;;42.40;;
21444;SDS011;10883;51.946;20.140;2023-04-06T00:06:30;118.23;;;43.17;;
21444;SDS011;10883;51.946;20.140;2023-04-06T00:08:57;118.10;;;43.60;;
21444;SDS011;10883;51.946;20.140;2023-04-06T00:11:23;101.97;;;38.47;;
21444;SDS011;10883;51.946;20.140;2023-04-06T00:13:50;96.90;;;37.13;;
21444;SDS011;10883;51.946;20.140;2023-04-06T00:16:15;87.70;;;35.03;;
21444;SDS011;10883;51.946;20.140;2023-04-06T00:18:41;93.73;;;35.43;;
21444;SDS011;10883;51.946;20.140;2023-04-06T00:21:07;82.70;;;33.93;;
21444;SDS011;10883;51.946;20.140;2023-04-06T00:23:33;77.83;;;31.90;;
21444;SDS011;10883;51.946;20.140;2023-04-06T00:25:59;81.20;;;30.17;;
21444;SDS011;10883;51.946;20.140;2023-04-06T00:28:25;78.47;;;31.23;;
21444;SDS011;10883;51.946;20.140;2023-04-06T00:30:51;75.13;;;29.90;;
21444;SDS011;10883;51.946;20.140;2023-04-06T00:33:19;78.63;;;32.80;;
21444;SDS011;10883;51.946;20.140;2023-04-06T00:35:45;88.50;;;35.37;;
21444;SDS011;10883;51.946;20.140;2023-04-06T00:38:11;98.10;;;39.87;;
21444;SDS011;10883;51.946;20.140;2023-04-06T00:40:37;96.40;;;38.80;;
21444;SDS011;10883;51.946;20.140;2023-04-06T00:43:05;101.53;;;40.23;;
21444;SDS011;10883;51.946;20.140;2023-04-06T00:45:32;89.90;;;36.73;;
21444;SDS011;10883;51.946;20.140;2023-04-06T00:47:58;94.40;;;37.17;;
21444;SDS011;10883;51.946;20.140;2023-04-06T00:50:24;99.03;;;36.97;;
21444;SDS011;10883;51.946;20.140;2023-04-06T00:52:50;84.43;;;36.47;;
21444;SDS011;10883;51.946;20.140;2023-04-06T00:55:17;94.47;;;36.60;;
21444;SDS011;10883;51.946;20.140;2023-04-06T00:57:42;88.37;;;36.77;;
21444;SDS011;10883;51.946;20.140;2023-04-06T01:00:09;85.67;;;35.57;;
21444;SDS011;10883;51.946;20.140;2023-04-06T01:02:35;91.70;;;37.43;;
21444;SDS011;10883;51.946;20.140;2023-04-06T01:05:02;82.80;;;33.17;;
21444;SDS011;10883;51.946;20.140;2023-04-06T01:07:28;69.17;;;31.23;;
21444;SDS011;10883;51.946;20.140;2023-04-06T01:09:54;72.97;;;30.57;;
21444;SDS011;10883;51.946;20.140;2023-04-06T01:12:20;58.60;;;27.53;;
21444;SDS011;10883;51.946;20.140;2023-04-06T01:14:46;72.23;;;27.23;;
21444;SDS011;10883;51.946;20.140;2023-04-06T01:17:12;55.60;;;22.77;;
21444;SDS011;10883;51.946;20.140;2023-04-06T01:19:38;47.37;;;23.60;;
21444;SDS011;10883;51.946;20.140;2023-04-06T01:22:05;52.57;;;21.73;;
21444;SDS011;10883;51.946;20.140;2023-04-06T01:24:31;45.90;;;21.73;;
21444;SDS011;10883;51.946;20.140;2023-04-06T01:26:57;51.43;;;22.33;;
21444;SDS011;10883;51.946;20.140;2023-04-06T01:29:23;45.73;;;21.40;;
21444;SDS011;10883;51.946;20.140;2023-04-06T01:31:49;51.97;;;22.90;;
21444;SDS011;10883;51.946;20.140;2023-04-06T01:34:15;53.00;;;22.90;;
21444;SDS011;10883;51.946;20.140;2023-04-06T01:36:41;43.70;;;20.87;;
21444;SDS011;10883;51.946;20.140;2023-04-06T01:39:07;50.23;;;21.30;;
21444;SDS011;10883;51.946;20.140;2023-04-06T01:41:33;46.07;;;22.73;;
21444;SDS011;10883;51.946;20.140;2023-04-06T01:43:59;48.87;;;22.37;;
21444;SDS011;10883;51.946;20.140;2023-04-06T01:46:25;50.53;;;22.23;;
21444;SDS011;10883;51.946;20.140;2023-04-06T01:48:51;46.50;;;22.07;;
21444;SDS011;10883;51.946;20.140;2023-04-06T01:51:17;47.87;;;21.60;;
21444;SDS011;10883;51.946;20.140;2023-04-06T01:53:43;51.60;;;24.60;;
21444;SDS011;10883;51.946;20.140;2023-04-06T01:56:09;54.00;;;23.57;;
21444;SDS011;10883;51.946;20.140;2023-04-06T01:58:35;57.83;;;24.80;;
21444;SDS011;10883;51.946;20.140;2023-04-06T02:01:01;55.53;;;23.90;;
21444;SDS011;10883;51.946;20.140;2023-04-06T02:03:27;51.67;;;23.20;;
21444;SDS011;10883;51.946;20.140;2023-04-06T02:05:53;43.43;;;21.90;;
21444;SDS011;10883;51.946;20.140;2023-04-06T02:08:19;47.47;;;22.60;;
21444;SDS011;10883;51.946;20.140;2023-04-06T02:10:45;57.13;;;25.00;;
21444;SDS011;10883;51.946;20.140;2023-04-06T02:13:11;50.50;;;22.63;;
21444;SDS011;10883;51.946;20.140;2023-04-06T02:15:37;53.60;;;23.40;;
21444;SDS011;10883;51.946;20.140;2023-04-06T02:18:02;52.57;;;23.40;;
21444;SDS011;10883;51.946;20.140;2023-04-06T02:20:28;53.43;;;23.97;;
21444;SDS011;10883;51.946;20.140;2023-04-06T02:22:56;47.23;;;22.63;;
21444;SDS011;10883;51.946;20.140;2023-04-06T02:25:23;55.67;;;23.13;;
21444;SDS011;10883;51.946;20.140;2023-04-06T02:27:50;51.93;;;23.97;;
21444;SDS011;10883;51.946;20.140;2023-04-06T02:30:15;71.93;;;29.43;;
21444;SDS011;10883;51.946;20.140;2023-04-06T02:32:41;85.93;;;34.50;;
21444;SDS011;10883;51.946;20.140;2023-04-06T02:35:07;63.70;;;26.03;;
21444;SDS011;10883;51.946;20.140;2023-04-06T02:37:33;55.30;;;25.07;;
21444;SDS011;10883;51.946;20.140;2023-04-06T02:39:59;46.00;;;22.00;;
21444;SDS011;10883;51.946;20.140;2023-04-06T02:42:25;45.90;;;21.17;;
21444;SDS011;10883;51.946;20.140;2023-04-06T02:44:50;49.50;;;21.80;;
21444;SDS011;10883;51.946;20.140;2023-04-06T02:47:16;50.47;;;23.17;;
21444;SDS011;10883;51.946;20.140;2023-04-06T02:49:42;47.93;;;23.47;;
21444;SDS011;10883;51.946;20.140;2023-04-06T02:52:08;49.73;;;23.87;;
21444;SDS011;10883;51.946;20.140;2023-04-06T02:54:34;48.80;;;23.40;;
21444;SDS011;10883;51.946;20.140;2023-04-06T02:57:00;52.93;;;23.53;;
21444;SDS011;10883;51.946;20.140;2023-04-06T02:59:25;60.97;;;26.17;;
21444;SDS011;10883;51.946;20.140;2023-04-06T03:01:51;59.93;;;27.10;;
21444;SDS011;10883;51.946;20.140;2023-04-06T03:04:17;60.03;;;26.23;;
21444;SDS011;10883;51.946;20.140;2023-04-06T03:06:43;63.47;;;26.43;;
21444;SDS011;10883;51.946;20.140;2023-04-06T03:09:09;54.87;;;24.13;;
21444;SDS011;10883;51.946;20.140;2023-04-06T03:11:35;56.43;;;24.53;;
21444;SDS011;10883;51.946;20.140;2023-04-06T03:14:01;49.67;;;23.43;;
21444;SDS011;10883;51.946;20.140;2023-04-06T03:16:27;60.93;;;26.63;;
21444;SDS011;10883;51.946;20.140;2023-04-06T03:18:52;59.37;;;25.10;;
21444;SDS011;10883;51.946;20.140;2023-04-06T03:21:18;61.97;;;26.03;;
21444;SDS011;10883;51.946;20.140;2023-04-06T03:23:44;64.27;;;26.40;;
21444;SDS011;10883;51.946;20.140;2023-04-06T03:26:10;67.13;;;26.77;;
21444;SDS011;10883;51.946;20.140;2023-04-06T03:28:36;60.17;;;25.97;;
21444;SDS011;10883;51.946;20.140;2023-04-06T03:31:02;63.40;;;27.23;;
21444;SDS011;10883;51.946;20.140;2023-04-06T03:33:28;63.73;;;26.83;;
21444;SDS011;10883;51.946;20.140;2023-04-06T03:35:54;72.23;;;30.40;;
21444;SDS011;10883;51.946;20.140;2023-04-06T03:38:20;150.13;;;57.70;;
21444;SDS011;10883;51.946;20.140;2023-04-06T03:40:45;82.63;;;34.70;;
21444;SDS011;10883;51.946;20.140;2023-04-06T03:43:11;63.27;;;27.20;;
21444;SDS011;10883;51.946;20.140;2023-04-06T03:45:37;52.73;;;24.77;;
21444;SDS011;10883;51.946;20.140;2023-04-06T03:48:03;49.33;;;22.67;;
21444;SDS011;10883;51.946;20.140;2023-04-06T03:50:29;48.93;;;23.30;;
21444;SDS011;10883;51.946;20.140;2023-04-06T03:52:55;53.92;;;23.60;;
21444;SDS011;10883;51.946;20.140;2023-04-06T03:55:21;43.37;;;23.83;;
21444;SDS011;10883;51.946;20.140;2023-04-06T03:57:47;48.40;;;25.37;;
21444;SDS011;10883;51.946;20.140;2023-04-06T04:00:13;49.57;;;25.73;;
21444;SDS011;10883;51.946;20.140;2023-04-06T04:02:39;53.00;;;26.13;;
21444;SDS011;10883;51.946;20.140;2023-04-06T04:05:05;48.60;;;25.43;;
21444;SDS011;10883;51.946;20.140;2023-04-06T04:07:31;54.67;;;24.57;;
21444;SDS011;10883;51.946;20.140;2023-04-06T04:09:57;52.60;;;24.53;;
21444;SDS011;10883;51.946;20.140;2023-04-06T04:12:23;52.50;;;24.40;;
21444;SDS011;10883;51.946;20.140;2023-04-06T04:14:49;46.47;;;24.23;;
21444;SDS011;10883;51.946;20.140;2023-04-06T04:17:14;50.07;;;22.33;;
21444;SDS011;10883;51.946;20.140;2023-04-06T04:19:40;44.43;;;21.30;;
21444;SDS011;10883;51.946;20.140;2023-04-06T04:22:06;44.07;;;20.07;;
21444;SDS011;10883;51.946;20.140;2023-04-06T04:24:32;43.50;;;21.17;;
21444;SDS011;10883;51.946;20.140;2023-04-06T04:26:59;35.43;;;17.97;;
21444;SDS011;10883;51.946;20.140;2023-04-06T04:29:26;39.50;;;19.07;;
21444;SDS011;10883;51.946;20.140;2023-04-06T04:31:52;41.07;;;19.63;;
21444;SDS011;10883;51.946;20.140;2023-04-06T04:34:18;37.53;;;18.27;;
21444;SDS011;10883;51.946;20.140;2023-04-06T04:36:50;37.27;;;18.90;;
21444;SDS011;10883;51.946;20.140;2023-04-06T04:39:16;44.23;;;21.17;;
21444;SDS011;10883;51.946;20.140;2023-04-06T04:41:42;44.40;;;21.63;;
21444;SDS011;10883;51.946;20.140;2023-04-06T04:44:07;43.47;;;21.13;;
21444;SDS011;10883;51.946;20.140;2023-04-06T04:46:33;48.37;;;20.90;;
21444;SDS011;10883;51.946;20.140;2023-04-06T04:48:59;44.92;;;21.10;;
21444;SDS011;10883;51.946;20.140;2023-04-06T04:51:25;43.00;;;20.03;;
21444;SDS011;10883;51.946;20.140;2023-04-06T04:53:51;45.13;;;19.17;;
21444;SDS011;10883;51.946;20.140;2023-04-06T04:56:17;42.10;;;18.27;;
21444;SDS011;10883;51.946;20.140;2023-04-06T04:58:43;38.13;;;18.77;;
21444;SDS011;10883;51.946;20.140;2023-04-06T05:01:08;32.77;;;18.47;;
21444;SDS011;10883;51.946;20.140;2023-04-06T05:03:36;41.50;;;20.90;;
21444;SDS011;10883;51.946;20.140;2023-04-06T05:06:03;36.10;;;19.20;;
21444;SDS011;10883;51.946;20.140;2023-04-06T05:08:30;42.40;;;20.80;;
21444;SDS011;10883;51.946;20.140;2023-04-06T05:10:56;45.50;;;20.87;;
21444;SDS011;10883;51.946;20.140;2023-04-06T05:13:22;37.20;;;18.67;;
21444;SDS011;10883;51.946;20.140;2023-04-06T05:15:48;39.20;;;18.67;;
21444;SDS011;10883;51.946;20.140;2023-04-06T05:18:13;40.03;;;19.57;;
21444;SDS011;10883;51.946;20.140;2023-04-06T05:20:40;35.60;;;17.97;;
21444;SDS011;10883;51.946;20.140;2023-04-06T05:23:06;42.50;;;19.53;;
21444;SDS011;10883;51.946;20.140;2023-04-06T05:25:31;37.70;;;17.73;;
21444;SDS011;10883;51.946;20.140;2023-04-06T05:27:58;42.77;;;18.43;;
21444;SDS011;10883;51.946;20.140;2023-04-06T05:30:24;34.80;;;17.67;;
21444;SDS011;10883;51.946;20.140;2023-04-06T05:32:50;33.07;;;15.87;;
21444;SDS011;10883;51.946;20.140;2023-04-06T05:35:16;34.47;;;17.02;;
21444;SDS011;10883;51.946;20.140;2023-04-06T05:37:42;33.00;;;17.07;;
21444;SDS011;10883;51.946;20.140;2023-04-06T05:40:08;36.40;;;16.70;;
21444;SDS011;10883;51.946;20.140;2023-04-06T05:42:38;37.33;;;16.13;;
21444;SDS011;10883;51.946;20.140;2023-04-06T05:45:07;28.73;;;14.60;;
21444;SDS011;10883;51.946;20.140;2023-04-06T05:47:35;28.92;;;14.57;;
21444;SDS011;10883;51.946;20.140;2023-04-06T05:50:01;53.63;;;21.88;;
21444;SDS011;10883;51.946;20.140;2023-04-06T05:52:27;37.90;;;17.73;;
21444;SDS011;10883;51.946;20.140;2023-04-06T05:54:53;34.85;;;14.70;;
21444;SDS011;10883;51.946;20.140;2023-04-06T05:57:19;37.05;;;16.20;;
21444;SDS011;10883;51.946;20.140;2023-04-06T05:59:45;31.67;;;15.75;;
21444;SDS011;10883;51.946;20.140;2023-04-06T06:02:11;43.20;;;16.42;;
21444;SDS011;10883;51.946;20.140;2023-04-06T06:04:36;64.47;;;21.45;;
21444;SDS011;10883;51.946;20.140;2023-04-06T06:07:02;73.90;;;23.73;;
21444;SDS011;10883;51.946;20.140;2023-04-06T06:09:28;75.57;;;33.22;;
21444;SDS011;10883;51.946;20.140;2023-04-06T06:11:54;57.03;;;25.30;;
21444;SDS011;10883;51.946;20.140;2023-04-06T06:14:20;38.95;;;15.30;;
21444;SDS011;10883;51.946;20.140;2023-04-06T06:16:47;19.70;;;9.63;;
21444;SDS011;10883;51.946;20.140;2023-04-06T06:19:13;31.13;;;15.30;;
21444;SDS011;10883;51.946;20.140;2023-04-06T06:21:39;28.67;;;11.48;;
21444;SDS011;10883;51.946;20.140;2023-04-06T06:24:07;14.97;;;8.63;;
21444;SDS011;10883;51.946;20.140;2023-04-06T06:26:32;97.50;;;35.17;;
21444;SDS011;10883;51.946;20.140;2023-04-06T06:29:00;150.00;;;52.70;;
21444;SDS011;10883;51.946;20.140;2023-04-06T06:31:26;26.65;;;11.13;;
21444;SDS011;10883;51.946;20.140;2023-04-06T06:33:52;22.45;;;10.57;;
21444;SDS011;10883;51.946;20.140;2023-04-06T06:39:14;29.63;;;13.73;;
21444;SDS011;10883;51.946;20.140;2023-04-06T06:41:42;16.00;;;8.18;;
21444;SDS011;10883;51.946;20.140;2023-04-06T06:44:08;16.50;;;7.32;;
21444;SDS011;10883;51.946;20.140;2023-04-06T06:46:37;42.03;;;13.88;;
21444;SDS011;10883;51.946;20.140;2023-04-06T06:49:03;14.68;;;7.82;;
21444;SDS011;10883;51.946;20.140;2023-04-06T06:51:29;16.70;;;8.07;;
21444;SDS011;10883;51.946;20.140;2023-04-06T06:53:56;15.27;;;8.23;;
21444;SDS011;10883;51.946;20.140;2023-04-06T06:56:22;14.57;;;6.55;;
21444;SDS011;10883;51.946;20.140;2023-04-06T06:58:48;53.47;;;14.73;;
21444;SDS011;10883;51.946;20.140;2023-04-06T07:01:13;18.75;;;6.90;;
21444;SDS011;10883;51.946;20.140;2023-04-06T07:03:40;26.60;;;8.25;;
21444;SDS011;10883;51.946;20.140;2023-04-06T07:06:05;77.47;;;17.08;;
21444;SDS011;10883;51.946;20.140;2023-04-06T07:08:31;17.27;;;5.35;;
21444;SDS011;10883;51.946;20.140;2023-04-06T07:10:57;12.25;;;7.10;;
21444;SDS011;10883;51.946;20.140;2023-04-06T07:13:23;19.17;;;6.40;;
21444;SDS011;10883;51.946;20.140;2023-04-06T07:15:49;24.90;;;8.32;;
21444;SDS011;10883;51.946;20.140;2023-04-06T07:18:16;11.23;;;5.03;;
21444;SDS011;10883;51.946;20.140;2023-04-06T07:20:43;7.65;;;3.80;;
21444;SDS011;10883;51.946;20.140;2023-04-06T07:23:09;10.15;;;4.25;;
21444;SDS011;10883;51.946;20.140;2023-04-06T07:25:34;9.85;;;3.90;;
21444;SDS011;10883;51.946;20.140;2023-04-06T07:28:01;10.00;;;4.15;;
21444;SDS011;10883;51.946;20.140;2023-04-06T07:30:28;8.98;;;5.38;;
21444;SDS011;10883;51.946;20.140;2023-04-06T07:32:54;9.55;;;3.78;;
21444;SDS011;10883;51.946;20.140;2023-04-06T07:35:24;13.95;;;4.60;;
21444;SDS011;10883;51.946;20.140;2023-04-06T07:37:51;36.83;;;10.68;;
21444;SDS011;10883;51.946;20.140;2023-04-06T07:40:17;45.67;;;13.25;;
21444;SDS011;10883;51.946;20.140;2023-04-06T07:42:44;10.68;;;4.30;;
21444;SDS011;10883;51.946;20.140;2023-04-06T07:45:10;26.75;;;8.95;;
21444;SDS011;10883;51.946;20.140;2023-04-06T07:47:37;11.68;;;5.18;;
21444;SDS011;10883;51.946;20.140;2023-04-06T07:50:03;11.20;;;4.93;;
21444;SDS011;10883;51.946;20.140;2023-04-06T07:52:29;5.82;;;2.95;;
21444;SDS011;10883;51.946;20.140;2023-04-06T07:54:57;6.10;;;3.38;;
21444;SDS011;10883;51.946;20.140;2023-04-06T07:57:23;4.65;;;2.78;;
21444;SDS011;10883;51.946;20.140;2023-04-06T07:59:49;9.40;;;3.10;;
21444;SDS011;10883;51.946;20.140;2023-04-06T08:02:15;8.02;;;3.50;;
21444;SDS011;10883;51.946;20.140;2023-04-06T08:04:41;8.05;;;3.42;;
21444;SDS011;10883;51.946;20.140;2023-04-06T08:07:07;7.38;;;3.05;;
21444;SDS011;10883;51.946;20.140;2023-04-06T08:09:33;33.88;;;14.23;;
21444;SDS011;10883;51.946;20.140;2023-04-06T08:11:59;8.30;;;4.35;;
21444;SDS011;10883;51.946;20.140;2023-04-06T08:14:25;6.13;;;3.22;;
21444;SDS011;10883;51.946;20.140;2023-04-06T08:16:51;5.50;;;2.88;;
21444;SDS011;10883;51.946;20.140;2023-04-06T08:19:16;7.20;;;2.80;;
21444;SDS011;10883;51.946;20.140;2023-04-06T08:21:44;20.50;;;6.78;;
21444;SDS011;10883;51.946;20.140;2023-04-06T08:24:11;20.58;;;8.02;;
21444;SDS011;10883;51.946;20.140;2023-04-06T08:26:37;15.80;;;4.15;;
21444;SDS011;10883;51.946;20.140;2023-04-06T08:29:03;9.65;;;4.53;;
21444;SDS011;10883;51.946;20.140;2023-04-06T08:31:29;6.85;;;3.55;;
21444;SDS011;10883;51.946;20.140;2023-04-06T08:33:55;4.60;;;2.42;;
21444;SDS011;10883;51.946;20.140;2023-04-06T08:36:22;9.52;;;3.53;;
21444;SDS011;10883;51.946;20.140;2023-04-06T08:38:48;4.25;;;2.95;;
21444;SDS011;10883;51.946;20.140;2023-04-06T08:41:15;10.43;;;4.38;;
21444;SDS011;10883;51.946;20.140;2023-04-06T08:43:44;7.45;;;3.38;;
21444;SDS011;10883;51.946;20.140;2023-04-06T08:46:12;18.42;;;7.78;;
21444;SDS011;10883;51.946;20.140;2023-04-06T08:48:40;21.35;;;8.75;;
21444;SDS011;10883;51.946;20.140;2023-04-06T08:51:08;27.75;;;8.52;;
21444;SDS011;10883;51.946;20.140;2023-04-06T08:53:34;16.33;;;6.80;;
21444;SDS011;10883;51.946;20.140;2023-04-06T08:56:01;11.48;;;4.93;;
21444;SDS011;10883;51.946;20.140;2023-04-06T08:58:32;7.95;;;4.10;;
21444;SDS011;10883;51.946;20.140;2023-04-06T09:01:02;7.88;;;4.00;;
21444;SDS011;10883;51.946;20.140;2023-04-06T09:03:33;8.68;;;3.50;;
21444;SDS011;10883;51.946;20.140;2023-04-06T09:06:04;4.95;;;3.13;;
21444;SDS011;10883;51.946;20.140;2023-04-06T09:08:30;6.35;;;3.08;;
21444;SDS011;10883;51.946;20.140;2023-04-06T09:10:57;10.63;;;3.38;;
21444;SDS011;10883;51.946;20.140;2023-04-06T09:13:23;14.05;;;5.95;;
21444;SDS011;10883;51.946;20.140;2023-04-06T09:16:02;5.65;;;2.97;;
21444;SDS011;10883;51.946;20.140;2023-04-06T09:18:32;6.35;;;3.20;;
21444;SDS011;10883;51.946;20.140;2023-04-06T09:23:30;7.65;;;2.90;;
21444;SDS011;10883;51.946;20.140;2023-04-06T09:28:42;8.45;;;4.65;;
21444;SDS011;10883;51.946;20.140;2023-04-06T09:31:16;13.57;;;3.92;;
21444;SDS011;10883;51.946;20.140;2023-04-06T09:33:46;8.90;;;3.38;;
21444;SDS011;10883;51.946;20.140;2023-04-06T09:36:13;8.05;;;4.60;;
21444;SDS011;10883;51.946;20.140;2023-04-06T09:38:59;5.97;;;3.42;;
21444;SDS011;10883;51.946;20.140;2023-04-06T09:41:33;10.98;;;4.57;;
21444;SDS011;10883;51.946;20.140;2023-04-06T09:44:04;8.07;;;3.33;;
21444;SDS011;10883;51.946;20.140;2023-04-06T09:46:32;9.15;;;3.75;;
21444;SDS011;10883;51.946;20.140;2023-04-06T09:49:06;6.40;;;3.40;;
21444;SDS011;10883;51.946;20.140;2023-04-06T09:54:01;14.25;;;4.93;;
21444;SDS011;10883;51.946;20.140;2023-04-06T09:56:28;13.88;;;4.38;;
21444;SDS011;10883;51.946;20.140;2023-04-06T09:59:01;8.00;;;3.78;;
21444;SDS011;10883;51.946;20.140;2023-04-06T10:01:30;12.05;;;5.93;;
21444;SDS011;10883;51.946;20.140;2023-04-06T10:06:46;9.02;;;4.20;;
21444;SDS011;10883;51.946;20.140;2023-04-06T10:09:17;5.53;;;3.38;;
21444;SDS011;10883;51.946;20.140;2023-04-06T10:11:45;9.02;;;4.03;;
21444;SDS011;10883;51.946;20.140;2023-04-06T10:14:12;11.75;;;4.38;;
21444;SDS011;10883;51.946;20.140;2023-04-06T10:16:39;8.80;;;3.95;;
21444;SDS011;10883;51.946;20.140;2023-04-06T10:19:06;12.90;;;6.07;;
21444;SDS011;10883;51.946;20.140;2023-04-06T10:21:40;9.30;;;4.00;;
21444;SDS011;10883;51.946;20.140;2023-04-06T10:24:11;6.95;;;3.58;;
21444;SDS011;10883;51.946;20.140;2023-04-06T10:26:38;11.30;;;5.70;;
21444;SDS011;10883;51.946;20.140;2023-04-06T10:29:05;13.48;;;5.70;;
21444;SDS011;10883;51.946;20.140;2023-04-06T10:31:31;8.52;;;4.43;;
21444;SDS011;10883;51.946;20.140;2023-04-06T10:34:01;8.38;;;5.10;;
21444;SDS011;10883;51.946;20.140;2023-04-06T10:36:28;7.22;;;4.10;;
21444;SDS011;10883;51.946;20.140;2023-04-06T10:38:59;6.38;;;3.92;;
21444;SDS011;10883;51.946;20.140;2023-04-06T10:44:31;9.38;;;4.78;;
21444;SDS011;10883;51.946;20.140;2023-04-06T10:47:15;9.93;;;4.70;;
21444;SDS011;10883;51.946;20.140;2023-04-06T10:49:43;9.02;;;4.13;;
21444;SDS011;10883;51.946;20.140;2023-04-06T10:52:09;8.32;;;3.60;;
21444;SDS011;10883;51.946;20.140;2023-04-06T10:54:36;7.30;;;3.25;;
21444;SDS011;10883;51.946;20.140;2023-04-06T10:57:06;7.45;;;4.15;;
21444;SDS011;10883;51.946;20.140;2023-04-06T10:59:32;13.00;;;4.30;;
21444;SDS011;10883;51.946;20.140;2023-04-06T11:01:58;8.07;;;3.70;;
21444;SDS011;10883;51.946;20.140;2023-04-06T11:04:24;6.30;;;3.50;;
21444;SDS011;10883;51.946;20.140;2023-04-06T11:06:50;5.13;;;3.15;;
21444;SDS011;10883;51.946;20.140;2023-04-06T11:09:29;7.97;;;3.67;;
21444;SDS011;10883;51.946;20.140;2023-04-06T11:11:56;8.73;;;3.45;;
21444;SDS011;10883;51.946;20.140;2023-04-06T11:14:22;7.03;;;3.45;;
21444;SDS011;10883;51.946;20.140;2023-04-06T11:16:48;8.52;;;3.97;;
21444;SDS011;10883;51.946;20.140;2023-04-06T11:19:15;7.72;;;3.95;;
21444;SDS011;10883;51.946;20.140;2023-04-06T11:26:48;7.18;;;4.63;;
21444;SDS011;10883;51.946;20.140;2023-04-06T11:29:19;9.25;;;4.70;;
21444;SDS011;10883;51.946;20.140;2023-04-06T11:34:17;11.68;;;6.15;;
21444;SDS011;10883;51.946;20.140;2023-04-06T11:36:44;11.57;;;5.72;;
21444;SDS011;10883;51.946;20.140;2023-04-06T11:39:12;9.43;;;5.15;;
21444;SDS011;10883;51.946;20.140;2023-04-06T11:41:39;7.85;;;5.03;;
21444;SDS011;10883;51.946;20.140;2023-04-06T11:44:05;9.05;;;4.80;;
21444;SDS011;10883;51.946;20.140;2023-04-06T11:46:31;6.45;;;4.13;;
21444;SDS011;10883;51.946;20.140;2023-04-06T11:49:00;8.90;;;4.18;;
21444;SDS011;10883;51.946;20.140;2023-04-06T11:51:27;6.75;;;4.57;;
21444;SDS011;10883;51.946;20.140;2023-04-06T11:53:53;11.27;;;5.85;;
21444;SDS011;10883;51.946;20.140;2023-04-06T11:56:29;11.25;;;6.10;;
21444;SDS011;10883;51.946;20.140;2023-04-06T11:58:56;11.75;;;5.22;;
21444;SDS011;10883;51.946;20.140;2023-04-06T12:01:23;6.90;;;4.40;;
21444;SDS011;10883;51.946;20.140;2023-04-06T12:03:50;7.88;;;5.07;;
21444;SDS011;10883;51.946;20.140;2023-04-06T12:06:16;10.02;;;4.40;;
21444;SDS011;10883;51.946;20.140;2023-04-06T12:08:42;10.93;;;5.50;;
21444;SDS011;10883;51.946;20.140;2023-04-06T12:11:09;6.85;;;4.63;;
21444;SDS011;10883;51.946;20.140;2023-04-06T12:13:36;7.55;;;5.00;;
21444;SDS011;10883;51.946;20.140;2023-04-06T12:16:01;8.95;;;5.00;;
21444;SDS011;10883;51.946;20.140;2023-04-06T12:18:27;26.33;;;11.18;;
21444;SDS011;10883;51.946;20.140;2023-04-06T12:20:54;72.78;;;23.88;;
21444;SDS011;10883;51.946;20.140;2023-04-06T12:23:20;27.63;;;15.52;;
21444;SDS011;10883;51.946;20.140;2023-04-06T12:25:45;36.60;;;15.95;;
21444;SDS011;10883;51.946;20.140;2023-04-06T12:28:11;18.52;;;8.40;;
21444;SDS011;10883;51.946;20.140;2023-04-06T12:30:37;19.05;;;9.32;;
21444;SDS011;10883;51.946;20.140;2023-04-06T12:33:03;10.25;;;6.20;;
21444;SDS011;10883;51.946;20.140;2023-04-06T12:35:33;13.57;;;7.65;;
21444;SDS011;10883;51.946;20.140;2023-04-06T12:37:59;13.20;;;7.63;;
21444;SDS011;10883;51.946;20.140;2023-04-06T12:40:24;17.13;;;8.60;;
21444;SDS011;10883;51.946;20.140;2023-04-06T12:42:50;11.40;;;7.00;;
21444;SDS011;10883;51.946;20.140;2023-04-06T12:45:16;10.98;;;6.90;;
21444;SDS011;10883;51.946;20.140;2023-04-06T12:47:42;19.15;;;13.20;;
21444;SDS011;10883;51.946;20.140;2023-04-06T12:50:08;13.05;;;7.57;;
21444;SDS011;10883;51.946;20.140;2023-04-06T12:52:34;14.68;;;9.18;;
21444;SDS011;10883;51.946;20.140;2023-04-06T12:55:01;11.32;;;8.02;;
21444;SDS011;10883;51.946;20.140;2023-04-06T13:00:04;14.63;;;8.45;;
21444;SDS011;10883;51.946;20.140;2023-04-06T13:02:30;12.60;;;7.82;;
21444;SDS011;10883;51.946;20.140;2023-04-06T13:04:56;10.68;;;7.20;;
21444;SDS011;10883;51.946;20.140;2023-04-06T13:07:22;13.35;;;7.78;;
21444;SDS011;10883;51.946;20.140;2023-04-06T13:09:48;9.63;;;7.30;;
21444;SDS011;10883;51.946;20.140;2023-04-06T13:12:15;14.77;;;8.57;;
21444;SDS011;10883;51.946;20.140;2023-04-06T13:14:41;16.30;;;8.20;;
21444;SDS011;10883;51.946;20.140;2023-04-06T13:17:06;12.18;;;8.02;;
21444;SDS011;10883;51.946;20.140;2023-04-06T13:19:32;13.60;;;8.88;;
21444;SDS011;10883;51.946;20.140;2023-04-06T13:22:00;12.38;;;8.95;;
21444;SDS011;10883;51.946;20.140;2023-04-06T13:24:26;13.15;;;8.25;;
21444;SDS011;10883;51.946;20.140;2023-04-06T13:26:51;24.80;;;13.60;;
21444;SDS011;10883;51.946;20.140;2023-04-06T13:29:17;16.88;;;9.88;;
21444;SDS011;10883;51.946;20.140;2023-04-06T13:31:43;23.58;;;10.23;;
21444;SDS011;10883;51.946;20.140;2023-04-06T13:34:09;20.58;;;10.07;;
21444;SDS011;10883;51.946;20.140;2023-04-06T13:36:35;15.90;;;9.52;;
21444;SDS011;10883;51.946;20.140;2023-04-06T13:39:01;24.58;;;12.15;;
21444;SDS011;10883;51.946;20.140;2023-04-06T13:41:27;16.17;;;8.82;;
21444;SDS011;10883;51.946;20.140;2023-04-06T13:43:52;14.02;;;8.75;;
21444;SDS011;10883;51.946;20.140;2023-04-06T13:46:18;13.05;;;9.05;;
21444;SDS011;10883;51.946;20.140;2023-04-06T13:48:45;19.15;;;12.05;;
21444;SDS011;10883;51.946;20.140;2023-04-06T13:51:12;14.93;;;8.85;;
21444;SDS011;10883;51.946;20.140;2023-04-06T13:53:39;20.33;;;10.20;;
21444;SDS011;10883;51.946;20.140;2023-04-06T13:56:05;17.48;;;10.63;;
21444;SDS011;10883;51.946;20.140;2023-04-06T13:58:32;17.20;;;10.18;;
21444;SDS011;10883;51.946;20.140;2023-04-06T14:01:05;14.35;;;8.95;;
21444;SDS011;10883;51.946;20.140;2023-04-06T14:03:32;12.77;;;8.88;;
21444;SDS011;10883;51.946;20.140;2023-04-06T14:05:58;16.15;;;9.65;;
21444;SDS011;10883;51.946;20.140;2023-04-06T14:08:24;17.15;;;9.13;;
21444;SDS011;10883;51.946;20.140;2023-04-06T14:10:51;16.35;;;9.27;;
21444;SDS011;10883;51.946;20.140;2023-04-06T14:13:17;16.08;;;9.82;;
21444;SDS011;10883;51.946;20.140;2023-04-06T14:15:44;16.27;;;10.05;;
21444;SDS011;10883;51.946;20.140;2023-04-06T14:18:10;19.67;;;10.20;;
21444;SDS011;10883;51.946;20.140;2023-04-06T14:20:36;16.80;;;10.25;;
21444;SDS011;10883;51.946;20.140;2023-04-06T14:23:02;19.58;;;10.45;;
21444;SDS011;10883;51.946;20.140;2023-04-06T14:25:28;17.73;;;11.52;;
21444;SDS011;10883;51.946;20.140;2023-04-06T14:27:59;19.63;;;11.20;;
21444;SDS011;10883;51.946;20.140;2023-04-06T14:30:26;16.35;;;10.48;;
21444;SDS011;10883;51.946;20.140;2023-04-06T14:32:52;20.85;;;12.40;;
21444;SDS011;10883;51.946;20.140;2023-04-06T14:35:22;28.15;;;15.80;;
21444;SDS011;10883;51.946;20.140;2023-04-06T14:37:47;22.98;;;12.98;;
21444;SDS011;10883;51.946;20.140;2023-04-06T14:40:13;24.02;;;13.65;;